Time;durP1;ratioP1;P1;durP2;ratioP2;P2;SDS_P1;SDS_P2;PMS_P1;PMS_P2;Temp;Humidity;BMP_temperature;BMP_pressure;BME280_temperature;BME280_humidity;BME280_pressure;Samples;Min_cycle;Max_cycle;Signal;HPM_P1;HPM_P2
2023/10/23 00:00:46;;;;;;;8.80;3.58;;;;;;;12.08;85.02;98234.63;5093341;28;20066;-48
2023/10/23 00:03:12;;;;;;;8.50;3.17;;;;;;;12.36;86.91;98247.22;5093372;28;20024;-48
2023/10/23 00:05:37;;;;;;;8.35;3.45;;;;;;;12.54;84.46;98237.69;5091855;28;20532;-48
2023/10/23 00:08:03;;;;;;;9.85;3.28;;;;;;;12.73;85.57;98230.53;5093237;28;20059;-48
2023/10/23 00:10:29;;;;;;;6.97;3.17;;;;;;;13.07;85.58;98225.56;5091533;28;20509;-48
2023/10/23 00:12:55;;;;;;;5.07;2.72;;;;;;;13.35;84.49;98227.53;5093123;28;20497;-48
2023/10/23 00:15:21;;;;;;;8.75;3.00;;;;;;;13.44;83.19;98220.09;5091728;28;20024;-48
2023/10/23 00:17:47;;;;;;;8.18;1.83;;;;;;;13.46;79.03;98224.13;5093038;28;20394;-48
2023/10/23 00:20:12;;;;;;;4.38;1.75;;;;;;;13.15;77.40;98219.94;5092890;28;20093;-48
2023/10/23 00:22:38;;;;;;;7.03;2.08;;;;;;;12.87;77.84;98216.13;5091615;28;20020;-48
2023/10/23 00:25:04;;;;;;;5.70;1.85;;;;;;;12.68;77.00;98217.25;5092813;28;20020;-47
2023/10/23 00:27:30;;;;;;;3.38;1.75;;;;;;;12.51;78.11;98227.59;5092868;28;20066;-48
2023/10/23 00:29:55;;;;;;;8.48;2.70;;;;;;;12.44;78.47;98230.34;5091471;28;20502;-47
2023/10/23 00:32:21;;;;;;;3.25;1.73;;;;;;;12.46;78.03;98230.91;5092662;28;20020;-48
2023/10/23 00:34:47;;;;;;;2.72;1.60;;;;;;;12.38;78.24;98232.03;5092700;28;20028;-47
2023/10/23 00:37:12;;;;;;;7.38;2.10;;;;;;;12.32;78.29;98227.66;5091395;28;20031;-48
2023/10/23 00:39:38;;;;;;;7.57;2.60;;;;;;;12.55;80.49;98231.38;5092629;28;20059;-48
2023/10/23 00:42:04;;;;;;;6.13;2.92;;;;;;;13.05;80.35;98224.97;5092566;28;20449;-48
2023/10/23 00:44:30;;;;;;;6.07;3.00;;;;;;;13.45;79.03;98217.22;5092571;28;20036;-48
2023/10/23 00:46:56;;;;;;;6.13;2.60;;;;;;;13.49;77.50;98212.31;5090591;28;20497;-48
2023/10/23 00:49:23;;;;;;;12.30;3.58;;;;;;;13.58;77.58;98210.91;5092397;28;20031;-48
2023/10/23 00:51:50;;;;;;;5.78;3.03;;;;;;;13.90;77.09;98199.94;5092493;28;20020;-48
2023/10/23 00:54:16;;;;;;;4.35;1.90;;;;;;;13.94;75.08;98188.72;5092375;28;20025;-48
2023/10/23 00:56:41;;;;;;;4.95;2.20;;;;;;;13.59;74.03;98196.69;5090971;28;20035;-48
2023/10/23 00:59:09;;;;;;;8.57;3.72;;;;;;;13.52;74.98;98198.66;5092338;28;20016;-48
2023/10/23 01:01:35;;;;;;;7.47;3.70;;;;;;;13.59;74.48;98192.22;5091061;28;20040;-48
2023/10/23 01:04:03;;;;;;;4.38;2.20;;;;;;;13.70;73.97;98192.44;5091211;28;20503;-48
2023/10/23 01:06:30;;;;;;;4.78;2.33;;;;;;;13.57;73.66;98194.28;5092301;28;20111;-48
2023/10/23 01:08:56;;;;;;;10.10;3.00;;;;;;;13.66;73.41;98186.00;5092156;28;20020;-48
2023/10/23 01:11:22;;;;;;;4.05;2.42;;;;;;;13.70;72.82;98171.34;5091895;28;20052;-48
2023/10/23 01:13:47;;;;;;;8.20;1.83;;;;;;;13.43;72.19;98156.03;5092113;28;20024;-48
2023/10/23 01:16:13;;;;;;;11.10;2.60;;;;;;;13.39;73.54;98160.16;5092086;28;20041;-48
2023/10/23 01:18:39;;;;;;;7.05;2.05;;;;;;;13.31;73.19;98150.78;5092268;28;20085;-48
2023/10/23 01:21:05;;;;;;;4.38;1.92;;;;;;;13.38;73.53;98140.91;5090854;28;20451;-48
2023/10/23 01:23:36;;;;;;;9.38;2.83;;;;;;;13.65;73.17;98147.50;5073738;28;20028;-48
2023/10/23 01:26:02;;;;;;;4.15;1.98;;;;;;;13.56;71.66;98150.50;5092021;28;20024;-48
2023/10/23 01:28:28;;;;;;;4.15;1.95;;;;;;;13.42;72.12;98161.53;5091875;28;20032;-48
2023/10/23 01:30:53;;;;;;;6.32;2.50;;;;;;;13.44;73.27;98152.38;5090512;28;20043;-48
2023/10/23 01:33:19;;;;;;;5.55;2.15;;;;;;;13.69;73.21;98144.16;5091914;28;20100;-48
2023/10/23 01:35:45;;;;;;;8.00;4.13;;;;;;;14.07;73.64;98136.72;5090518;28;20032;-48
2023/10/23 01:38:13;;;;;;;7.47;3.15;;;;;;;14.74;72.70;98123.59;5091882;28;20496;-48
2023/10/23 01:40:38;;;;;;;3.38;2.00;;;;;;;15.03;70.83;98118.22;5091826;28;20027;-47
2023/10/23 01:43:04;;;;;;;6.25;2.53;;;;;;;14.87;69.71;98116.38;5091876;28;20394;-48
2023/10/23 01:45:30;;;;;;;5.00;2.00;;;;;;;14.57;69.43;98112.25;5091679;28;20032;-48
2023/10/23 01:47:55;;;;;;;3.35;2.28;;;;;;;14.29;70.10;98105.16;5091776;28;20398;-48
2023/10/23 01:50:21;;;;;;;9.60;2.97;;;;;;;14.21;70.49;98102.91;5091613;28;20027;-48
2023/10/23 01:52:47;;;;;;;7.15;2.20;;;;;;;14.04;70.28;98093.09;5091654;28;20101;-48
2023/10/23 01:55:13;;;;;;;5.95;2.05;;;;;;;13.81;70.54;98098.50;5091726;28;20012;-48
2023/10/23 01:57:38;;;;;;;3.42;2.08;;;;;;;13.56;71.14;98102.25;5091038;28;20081;-48
2023/10/23 02:00:06;;;;;;;2.95;1.77;;;;;;;13.54;72.14;98104.31;5095697;28;20037;-48
2023/10/23 02:02:33;;;;;;;5.88;2.60;;;;;;;13.90;72.20;98097.06;5095666;28;20486;-48
2023/10/23 02:05:00;;;;;;;5.80;2.15;;;;;;;14.03;69.75;98106.56;5095690;28;20021;-48
2023/10/23 02:07:27;;;;;;;3.65;1.80;;;;;;;13.86;69.46;98093.31;5095493;28;20027;-48
2023/10/23 02:09:53;;;;;;;9.55;2.10;;;;;;;13.70;69.59;98090.41;5095205;28;20101;-48
2023/10/23 02:12:19;;;;;;;8.82;2.97;;;;;;;13.89;71.26;98087.56;5095500;28;20024;-48
2023/10/23 02:14:44;;;;;;;9.88;3.70;;;;;;;14.44;70.98;98073.72;5095386;28;20173;-48
2023/10/23 02:17:10;;;;;;;5.88;1.88;;;;;;;14.83;69.50;98076.44;5094174;28;20024;-48
2023/10/23 02:19:36;;;;;;;8.45;3.92;;;;;;;15.04;69.32;98066.94;5095300;28;20107;-48
2023/10/23 02:22:02;;;;;;;11.32;4.25;;;;;;;15.38;68.32;98061.56;5094049;28;20028;-48
2023/10/23 02:24:27;;;;;;;5.50;2.42;;;;;;;15.71;66.46;98054.50;5095208;28;20054;-48
2023/10/23 02:26:54;;;;;;;8.45;3.83;;;;;;;15.89;66.11;98048.09;5095199;28;20059;-48
2023/10/23 02:29:20;;;;;;;5.07;3.20;;;;;;;16.04;64.80;98042.16;5095074;28;20020;-48
2023/10/23 02:31:45;;;;;;;4.13;2.05;;;;;;;15.98;63.84;98046.59;5095033;28;20102;-48
2023/10/23 02:34:11;;;;;;;9.63;3.20;;;;;;;15.73;63.86;98045.28;5095032;28;20078;-48
2023/10/23 02:36:37;;;;;;;7.35;2.58;;;;;;;15.42;63.35;98043.34;5093599;28;20020;-48
2023/10/23 02:39:03;;;;;;;10.18;2.90;;;;;;;15.23;64.21;98048.97;5094928;28;20027;-48
2023/10/23 02:41:32;;;;;;;6.53;1.95;;;;;;;15.21;63.28;98037.81;5095165;28;20027;-48
2023/10/23 02:43:58;;;;;;;9.88;2.55;;;;;;;15.05;63.89;98036.03;5093871;28;20485;-48
2023/10/23 02:46:23;;;;;;;6.03;2.03;;;;;;;15.04;64.12;98037.09;5094804;28;20027;-48
2023/10/23 02:48:50;;;;;;;6.25;2.08;;;;;;;14.88;63.49;98034.22;5094775;28;20053;-48
2023/10/23 02:51:16;;;;;;;8.02;2.78;;;;;;;14.64;63.97;98024.94;5094954;28;20446;-48
2023/10/23 02:53:42;;;;;;;6.25;1.90;;;;;;;14.48;64.49;98016.75;5094633;28;20054;-48
2023/10/23 02:56:11;;;;;;;2.38;1.60;;;;;;;14.31;65.28;98019.41;5094551;28;20036;-48
2023/10/23 02:58:37;;;;;;;10.13;2.88;;;;;;;14.14;66.16;98014.13;5094582;28;20052;-48
2023/10/23 03:01:17;;;;;;;3.97;1.58;;;;;;;14.31;66.45;98003.56;5094517;28;20066;-48
2023/10/23 03:03:43;;;;;;;7.45;1.77;;;;;;;14.40;65.75;98003.94;5094515;28;20569;-48
2023/10/23 03:06:09;;;;;;;5.57;1.83;;;;;;;14.30;65.70;98009.88;5094365;28;20020;-48
2023/10/23 03:08:35;;;;;;;4.47;1.80;;;;;;;14.12;65.78;98000.38;5094290;28;20020;-48
2023/10/23 03:11:01;;;;;;;4.82;2.13;;;;;;;14.17;66.82;98003.09;5093211;28;20404;-48
2023/10/23 03:13:26;;;;;;;3.83;2.33;;;;;;;14.47;66.76;98006.44;5094315;28;20028;-48
2023/10/23 03:15:52;;;;;;;6.18;2.03;;;;;;;14.48;65.54;98006.19;5093276;28;20020;-48
2023/10/23 03:18:18;;;;;;;4.22;1.70;;;;;;;14.48;64.84;98008.81;5094239;28;20020;-48
2023/10/23 03:20:44;;;;;;;4.55;3.13;;;;;;;14.31;65.80;97997.50;5076013;28;20490;-48
2023/10/23 03:23:09;;;;;;;2.30;1.25;;;;;;;14.17;66.73;97997.03;5094186;28;20555;-48
2023/10/23 03:25:35;;;;;;;7.25;1.55;;;;;;;13.94;67.78;97993.50;5094071;28;20413;-48
2023/10/23 03:28:01;;;;;;;7.18;2.40;;;;;;;13.70;69.04;97992.00;5092696;28;20024;-48
2023/10/23 03:30:26;;;;;;;3.40;1.40;;;;;;;13.47;69.43;97988.47;5093933;28;20017;-48
2023/10/23 03:32:52;;;;;;;6.78;2.13;;;;;;;13.45;69.57;97985.25;5092665;28;20103;-48
2023/10/23 03:35:18;;;;;;;7.25;3.15;;;;;;;13.57;69.47;97978.09;5093909;28;20019;-48
2023/10/23 03:37:44;;;;;;;3.63;1.55;;;;;;;13.63;68.54;97971.09;5092595;28;20032;-48
2023/10/23 03:40:10;;;;;;;3.60;1.80;;;;;;;13.54;69.02;97968.03;5093787;28;20020;-48
2023/10/23 03:42:36;;;;;;;5.00;1.60;;;;;;;13.54;69.03;97977.75;5092719;28;20059;-48
2023/10/23 03:45:02;;;;;;;3.92;1.35;;;;;;;13.62;68.89;97969.47;5093737;28;20059;-48
2023/10/23 03:47:28;;;;;;;2.53;1.70;;;;;;;13.53;69.07;97982.25;5093618;28;20028;-48
2023/10/23 03:49:54;;;;;;;4.53;1.80;;;;;;;13.70;69.60;97968.28;5093524;28;20489;-48
2023/10/23 03:52:19;;;;;;;7.47;2.67;;;;;;;13.94;69.23;97959.22;5092168;28;20039;-48
2023/10/23 03:54:45;;;;;;;5.30;1.52;;;;;;;14.06;67.74;97956.47;5093536;28;20024;-48
2023/10/23 03:57:11;;;;;;;3.58;1.40;;;;;;;13.84;67.81;97951.13;5093459;28;20024;-48
2023/10/23 03:59:36;;;;;;;6.18;2.55;;;;;;;13.74;68.13;97956.22;5093645;28;20493;-48
2023/10/23 04:02:02;;;;;;;8.80;2.10;;;;;;;13.79;68.46;97946.56;5093400;28;20477;-48
2023/10/23 04:04:28;;;;;;;6.05;2.47;;;;;;;13.75;68.68;97950.72;5093329;28;20039;-48
2023/10/23 04:06:54;;;;;;;6.70;2.15;;;;;;;13.79;68.06;97943.94;5093312;28;20085;-48
2023/10/23 04:09:19;;;;;;;5.28;2.25;;;;;;;13.84;67.87;97947.69;5092906;28;20039;-49
2023/10/23 04:11:45;;;;;;;2.58;1.30;;;;;;;13.88;67.37;97949.59;5093191;28;20065;-48
2023/10/23 04:14:11;;;;;;;11.07;1.80;;;;;;;13.78;67.94;97944.97;5093128;28;20032;-48
2023/10/23 04:16:37;;;;;;;3.70;1.50;;;;;;;13.65;67.72;97952.41;5093005;28;20017;-48
2023/10/23 04:19:03;;;;;;;8.18;3.70;;;;;;;13.58;68.74;97934.88;5093029;28;20020;-48
2023/10/23 04:21:29;;;;;;;6.97;2.05;;;;;;;13.73;68.47;97934.34;5092761;28;20023;-48
2023/10/23 04:23:54;;;;;;;9.90;3.25;;;;;;;13.83;68.92;97938.97;5092903;28;20028;-48
2023/10/23 04:26:20;;;;;;;6.50;2.10;;;;;;;13.73;68.86;97934.34;5093118;28;20031;-48
2023/10/23 04:28:46;;;;;;;5.95;2.65;;;;;;;13.63;70.33;97936.00;5092907;28;20028;-48
2023/10/23 04:31:12;;;;;;;3.83;2.38;;;;;;;13.43;71.00;97939.88;5091394;28;20089;-48
2023/10/23 04:33:37;;;;;;;10.05;3.33;;;;;;;13.26;72.31;97939.84;5093042;28;20493;-48
2023/10/23 04:36:03;;;;;;;6.22;2.42;;;;;;;13.36;74.46;97942.69;5091455;28;20454;-48
2023/10/23 04:38:30;;;;;;;4.05;1.63;;;;;;;13.29;73.54;97931.47;5092676;28;20393;-47
2023/10/23 04:40:56;;;;;;;9.23;2.38;;;;;;;13.04;76.23;97933.59;5092526;28;20654;-48
2023/10/23 04:43:22;;;;;;;8.27;2.17;;;;;;;12.52;78.95;97927.34;5091256;28;20028;-48
2023/10/23 04:45:55;;;;;;;3.42;1.77;;;;;;;12.31;82.18;97920.03;5092558;28;20020;-48
2023/10/23 04:48:20;;;;;;;2.75;1.58;;;;;;;12.34;83.43;97919.56;5092553;28;20485;-48
2023/10/23 04:50:46;;;;;;;6.18;1.75;;;;;;;12.38;81.07;97920.72;5092420;28;20107;-48
2023/10/23 04:53:12;;;;;;;5.65;1.90;;;;;;;12.29;82.89;97919.47;5092451;28;20024;-48
2023/10/23 04:55:39;;;;;;;19.30;11.65;;;;;;;12.36;84.90;97920.94;5090965;28;20024;-48
2023/10/23 04:58:06;;;;;;;40.97;32.58;;;;;;;12.45;86.20;97917.97;5090986;28;20023;-48
2023/10/23 05:00:35;;;;;;;34.33;20.50;;;;;;;12.62;88.24;97913.59;5092293;28;20043;-48
2023/10/23 05:03:03;;;;;;;20.90;9.15;;;;;;;12.76;89.97;97922.03;5092222;28;20062;-48
2023/10/23 05:05:30;;;;;;;20.05;6.50;;;;;;;13.07;92.27;97919.97;5090901;28;20047;-47
2023/10/23 05:07:56;;;;;;;28.50;5.53;;;;;;;13.42;93.09;97919.03;5090895;28;20028;-48
2023/10/23 05:10:21;;;;;;;20.42;5.15;;;;;;;13.58;92.41;97911.16;5091768;28;20550;-48
2023/10/23 05:12:49;;;;;;;11.70;3.88;;;;;;;13.62;90.43;97911.47;5090871;28;20031;-48
2023/10/23 05:15:16;;;;;;;5.03;1.30;;;;;;;13.73;86.96;97905.31;5092013;28;20146;-48
2023/10/23 05:17:41;;;;;;;21.50;4.30;;;;;;;13.67;84.61;97893.09;5092021;28;20080;-48
2023/10/23 05:20:08;;;;;;;4.63;1.90;;;;;;;13.68;83.81;97892.09;5092041;28;20103;-48
2023/10/23 05:22:33;;;;;;;6.50;1.80;;;;;;;13.51;82.21;97889.41;5092073;28;20031;-48
2023/10/23 05:25:00;;;;;;;4.70;1.80;;;;;;;13.44;83.03;97883.53;5091805;28;20561;-48
2023/10/23 05:27:25;;;;;;;4.43;1.50;;;;;;;13.43;81.23;97881.13;5090639;28;20016;-48
2023/10/23 05:29:51;;;;;;;11.65;3.25;;;;;;;13.38;82.15;97877.34;5091880;28;20024;-48
2023/10/23 05:32:16;;;;;;;6.35;1.38;;;;;;;13.38;78.76;97871.25;5091330;28;20398;-48
2023/10/23 05:34:45;;;;;;;2.70;1.73;;;;;;;13.30;80.80;97863.75;5092187;28;20115;-48
2023/10/23 05:37:11;;;;;;;7.85;1.70;;;;;;;13.29;81.68;97873.50;5091842;28;20508;-48
2023/10/23 05:39:37;;;;;;;3.33;1.50;;;;;;;13.38;81.98;97866.00;5090591;28;20503;-48
2023/10/23 05:42:03;;;;;;;3.08;1.75;;;;;;;13.48;83.21;97875.91;5091845;28;20027;-48
2023/10/23 05:44:29;;;;;;;5.28;2.08;;;;;;;13.53;81.96;97866.25;5090525;28;20578;-48
2023/10/23 05:46:54;;;;;;;9.07;3.35;;;;;;;13.62;82.12;97863.22;5091765;28;20048;-48
2023/10/23 05:49:20;;;;;;;5.07;2.03;;;;;;;13.95;79.63;97857.13;5091670;28;20053;-48
2023/10/23 05:51:46;;;;;;;9.65;3.10;;;;;;;14.05;79.15;97859.91;5091747;28;20027;-48
2023/10/23 05:54:12;;;;;;;6.53;1.33;;;;;;;14.24;78.83;97864.91;5090521;28;20020;-48
2023/10/23 05:56:38;;;;;;;4.28;1.80;;;;;;;14.28;78.05;97869.44;5091672;28;20481;-48
2023/10/23 05:59:03;;;;;;;5.88;1.70;;;;;;;14.25;76.54;97877.84;5090525;28;20535;-48
2023/10/23 06:01:30;;;;;;;2.95;1.42;;;;;;;14.21;75.92;97881.22;5091605;28;20032;-48
2023/10/23 06:03:56;;;;;;;4.47;1.52;;;;;;;14.16;75.08;97872.19;5091555;28;20027;-48
2023/10/23 06:06:22;;;;;;;9.82;3.50;;;;;;;14.25;75.05;97858.59;5091498;28;20017;-48
2023/10/23 06:08:47;;;;;;;3.67;1.63;;;;;;;14.69;75.06;97858.59;5091838;28;20048;-47
2023/10/23 06:11:13;;;;;;;10.07;2.25;;;;;;;14.89;73.89;97871.22;5091246;28;20044;-48
2023/10/23 06:13:39;;;;;;;23.13;4.25;;;;;;;15.03;73.40;97866.34;5090267;28;20043;-48
2023/10/23 06:16:05;;;;;;;17.85;3.80;;;;;;;15.14;72.32;97858.28;5090207;28;20024;-48
2023/10/23 06:18:32;;;;;;;9.55;2.50;;;;;;;15.24;68.93;97854.16;5090193;28;20044;-48
2023/10/23 06:21:05;;;;;;;8.88;2.97;;;;;;;15.12;67.81;97856.94;5090189;28;20107;-48
2023/10/23 06:23:39;;;;;;;9.63;3.45;;;;;;;15.04;68.60;97852.09;5090251;28;20035;-48
2023/10/23 06:26:05;;;;;;;3.40;1.85;;;;;;;15.05;67.70;97858.97;5091333;28;20024;-48
2023/10/23 06:28:32;;;;;;;3.33;1.50;;;;;;;15.01;66.11;97860.53;5091295;28;20060;-48
2023/10/23 06:31:09;;;;;;;31.73;2.67;;;;;;;14.80;67.77;97868.25;5089985;28;20028;-48
2023/10/23 06:33:36;;;;;;;4.15;1.50;;;;;;;14.55;68.38;97872.16;5091405;28;20047;-48
2023/10/23 06:36:07;;;;;;;5.28;1.60;;;;;;;14.46;68.02;97870.19;5091241;28;20024;-48
2023/10/23 06:38:33;;;;;;;5.43;1.60;;;;;;;14.45;67.44;97865.97;5091591;28;20036;-47
2023/10/23 06:41:06;;;;;;;26.23;3.15;;;;;;;14.38;68.28;97859.00;5091243;28;20119;-47
2023/10/23 06:43:33;;;;;;;26.38;2.72;;;;;;;14.27;69.22;97864.41;5091173;28;20059;-48
2023/10/23 06:45:58;;;;;;;3.40;1.50;;;;;;;14.14;70.19;97871.63;5093878;28;20386;-48
2023/10/23 06:48:24;;;;;;;2.60;1.35;;;;;;;13.98;72.43;97875.91;5094800;28;20065;-48
2023/10/23 06:50:50;;;;;;;4.38;1.40;;;;;;;13.70;73.09;97889.19;5093470;28;20066;-48
2023/10/23 06:53:16;;;;;;;4.30;2.20;;;;;;;13.46;76.14;97878.81;5093422;28;20024;-48
2023/10/23 06:55:52;;;;;;;2.25;1.55;;;;;;;13.25;76.77;97874.97;5094688;28;20028;-47
2023/10/23 06:58:21;;;;;;;4.82;2.17;;;;;;;13.00;78.02;97872.72;5094725;28;20032;-47
2023/10/23 07:00:49;;;;;;;5.90;2.85;;;;;;;12.88;79.36;97856.16;5094581;28;20031;-48
2023/10/23 07:03:15;;;;;;;6.78;2.40;;;;;;;12.85;80.27;97859.25;5094546;28;20016;-48
2023/10/23 07:05:41;;;;;;;6.25;2.28;;;;;;;12.85;81.92;97865.31;5093252;28;20035;-47
2023/10/23 07:08:07;;;;;;;17.50;4.72;;;;;;;12.79;81.97;97856.50;5093114;28;20082;-48
2023/10/23 07:10:36;;;;;;;11.90;3.28;;;;;;;12.87;84.76;97842.19;5092731;28;20135;-48
2023/10/23 07:13:02;;;;;;;23.75;4.13;;;;;;;12.94;83.86;97836.78;5094344;28;20166;-48
2023/10/23 07:15:32;;;;;;;12.00;4.13;;;;;;;12.92;86.19;97837.00;5094223;28;20103;-48
2023/10/23 07:17:57;;;;;;;7.07;2.13;;;;;;;13.03;82.70;97832.72;5094289;28;20020;-48
2023/10/23 07:20:23;;;;;;;13.45;4.22;;;;;;;13.12;82.81;97819.94;5092946;28;20447;-48
2023/10/23 07:22:49;;;;;;;6.63;2.38;;;;;;;13.21;80.53;97821.16;5094205;28;20031;-48
2023/10/23 07:25:14;;;;;;;4.40;2.20;;;;;;;13.26;80.43;97821.25;5094061;28;20036;-48
2023/10/23 07:27:40;;;;;;;6.47;2.58;;;;;;;13.33;81.80;97816.66;5094095;28;20539;-48
2023/10/23 07:30:07;;;;;;;6.15;2.92;;;;;;;13.48;80.10;97810.84;5092632;28;20085;-48
2023/10/23 07:32:36;;;;;;;7.70;3.53;;;;;;;13.73;81.72;97817.50;5094008;28;20417;-48
2023/10/23 07:35:04;;;;;;;6.93;4.22;;;;;;;14.05;80.70;97814.25;5092624;28;20024;-48
2023/10/23 07:37:30;;;;;;;14.70;4.80;;;;;;;14.21;78.79;97808.13;5093817;28;20024;-48
2023/10/23 07:39:57;;;;;;;12.50;8.00;;;;;;;14.44;77.35;97799.16;5093882;28;20030;-48
2023/10/23 07:42:23;;;;;;;8.93;3.63;;;;;;;14.70;77.96;97807.38;5093772;28;20406;-48
2023/10/23 07:44:49;;;;;;;909.67;726.95;;;;;;;14.91;73.68;97803.91;5093736;28;20039;-48
2023/10/23 07:47:15;;;;;;;32.88;27.92;;;;;;;15.26;74.56;97802.63;5093607;28;20487;-48
2023/10/23 07:49:41;;;;;;;9.48;5.65;;;;;;;15.70;68.84;97805.03;5093503;28;20066;-48
2023/10/23 07:52:08;;;;;;;7.57;3.83;;;;;;;16.14;70.09;97804.78;5092230;28;20052;-48
2023/10/23 07:54:33;;;;;;;12.45;7.45;;;;;;;16.44;66.17;97791.91;5093510;28;20023;-48
2023/10/23 07:56:59;;;;;;;8.45;4.28;;;;;;;16.42;65.14;97780.78;5093067;28;20099;-48
2023/10/23 07:59:26;;;;;;;5.53;3.05;;;;;;;16.30;65.54;97783.69;5093433;28;20111;-47
2023/10/23 08:01:52;;;;;;;7.13;3.80;;;;;;;16.23;66.04;97773.31;5093375;28;20025;-47
2023/10/23 08:04:18;;;;;;;6.43;3.40;;;;;;;16.31;65.63;97761.44;5093373;28;20020;-47
2023/10/23 08:06:45;;;;;;;10.38;4.40;;;;;;;16.16;67.47;97752.38;5093530;28;20113;-47
2023/10/23 08:09:11;;;;;;;5.20;3.25;;;;;;;16.06;65.45;97755.00;5091875;28;20031;-47
2023/10/23 08:11:37;;;;;;;13.05;4.20;;;;;;;16.08;66.33;97749.44;5093019;28;20047;-47
2023/10/23 08:14:04;;;;;;;7.55;4.03;;;;;;;16.32;65.92;97755.09;5093181;28;20393;-48
2023/10/23 08:16:30;;;;;;;6.05;4.13;;;;;;;16.55;64.61;97741.34;5091788;28;20074;-47
2023/10/23 08:18:57;;;;;;;8.48;5.80;;;;;;;17.05;63.63;97744.34;5093073;28;20391;-48
2023/10/23 08:21:26;;;;;;;7.03;4.85;;;;;;;17.51;61.99;97746.19;5091664;28;20093;-48
2023/10/23 08:23:54;;;;;;;10.57;5.03;;;;;;;17.60;59.98;97736.59;5092896;28;20032;-48
2023/10/23 08:26:21;;;;;;;10.10;4.03;;;;;;;17.55;59.17;97742.72;5093118;28;20043;-47
2023/10/23 08:28:47;;;;;;;8.93;6.53;;;;;;;17.54;60.70;97735.78;5092895;28;20020;-47
2023/10/23 08:31:13;;;;;;;7.82;4.75;;;;;;;17.63;58.77;97740.59;5091489;28;20569;-48
2023/10/23 08:33:38;;;;;;;10.57;5.60;;;;;;;17.65;57.88;97733.94;5092804;28;20028;-48
2023/10/23 08:36:04;;;;;;;13.55;6.07;;;;;;;17.66;58.50;97740.03;5092724;28;20023;-48
2023/10/23 08:38:30;;;;;;;17.88;8.82;;;;;;;18.20;57.30;97746.50;5092737;28;20089;-48
2023/10/23 08:40:56;;;;;;;30.55;17.42;;;;;;;18.77;56.50;97740.59;5092645;28;20115;-48
2023/10/23 08:43:24;;;;;;;49.58;26.77;;;;;;;19.03;53.91;97740.41;5092467;28;20027;-48
2023/10/23 08:45:54;;;;;;;41.78;24.45;;;;;;;19.01;53.35;97731.91;5092542;28;20473;-48
2023/10/23 08:48:19;;;;;;;7.95;5.30;;;;;;;18.84;53.46;97737.66;5092467;28;20132;-48
2023/10/23 08:50:46;;;;;;;13.50;9.18;;;;;;;18.63;52.03;97744.91;5092385;28;20028;-48
2023/10/23 08:53:15;;;;;;;59.78;35.10;;;;;;;18.48;52.72;97732.53;5092361;28;20024;-48
2023/10/23 08:55:42;;;;;;;33.33;20.10;;;;;;;18.44;52.03;97739.47;5092380;28;20279;-46
2023/10/23 08:58:12;;;;;;;16.83;10.38;;;;;;;18.20;53.52;97727.91;5074152;28;20028;-46
2023/10/23 09:00:38;;;;;;;11.10;6.63;;;;;;;18.11;53.78;97739.13;5091160;28;20383;-46
2023/10/23 09:03:05;;;;;;;8.07;4.70;;;;;;;18.25;53.19;97738.50;5092295;28;20025;-46
2023/10/23 09:05:30;;;;;;;17.95;11.23;;;;;;;18.56;53.40;97736.47;5092237;28;20035;-46
2023/10/23 09:07:56;;;;;;;7.75;4.43;;;;;;;19.29;52.43;97743.66;5091443;28;20020;-46
2023/10/23 09:10:22;;;;;;;6.15;3.33;;;;;;;19.83;50.38;97738.34;5091863;28;20048;-46
2023/10/23 09:12:55;;;;;;;12.32;5.18;;;;;;;19.57;49.04;97743.91;5092210;28;20475;-46
2023/10/23 09:15:21;;;;;;;12.23;3.72;;;;;;;19.08;50.08;97743.03;5090828;28;20051;-46
2023/10/23 09:17:50;;;;;;;9.65;4.10;;;;;;;18.86;51.41;97748.00;5090835;28;20064;-46
2023/10/23 09:20:16;;;;;;;7.53;3.83;;;;;;;18.96;51.94;97732.75;5090713;28;20089;-46
2023/10/23 09:22:47;;;;;;;9.13;3.13;;;;;;;19.51;51.42;97739.72;5092070;28;20016;-46
2023/10/23 09:25:24;;;;;;;10.57;3.22;;;;;;;20.22;49.70;97726.69;5091949;28;20032;-46
2023/10/23 09:27:50;;;;;;;14.60;5.38;;;;;;;20.41;48.13;97730.16;5092030;28;20063;-46
2023/10/23 09:30:25;;;;;;;5.50;2.78;;;;;;;20.49;46.51;97718.84;5090488;28;20048;-46
2023/10/23 09:32:53;;;;;;;7.32;3.35;;;;;;;20.78;46.53;97711.78;5090663;28;20071;-46
2023/10/23 09:35:20;;;;;;;8.23;3.55;;;;;;;20.93;46.17;97701.69;5092093;28;20164;-46
2023/10/23 09:37:46;;;;;;;10.85;7.35;;;;;;;20.73;46.78;97704.69;5091806;28;20075;-46
2023/10/23 09:40:12;;;;;;;6.90;3.50;;;;;;;21.25;46.28;97691.25;5090550;28;20560;-46
2023/10/23 09:42:40;;;;;;;7.78;3.25;;;;;;;21.36;45.31;97684.66;5091853;28;20021;-46
2023/10/23 09:45:06;;;;;;;7.78;2.55;;;;;;;21.06;44.85;97668.09;5091701;28;20047;-46
2023/10/23 09:47:32;;;;;;;10.43;3.80;;;;;;;20.73;46.49;97680.69;5091696;28;20020;-46
2023/10/23 09:49:59;;;;;;;6.20;2.65;;;;;;;20.65;45.82;97676.00;5091690;28;20025;-46
2023/10/23 09:52:26;;;;;;;10.75;3.00;;;;;;;20.66;49.48;97681.03;5091673;28;20020;-46
2023/10/23 09:55:04;;;;;;;5.10;2.83;;;;;;;20.50;47.31;97677.00;5091671;28;20104;-46
2023/10/23 09:57:37;;;;;;;5.13;2.42;;;;;;;20.27;47.14;97676.00;5091696;28;20060;-46
2023/10/23 10:00:14;;;;;;;6.25;3.33;;;;;;;20.00;47.92;97682.75;5091601;28;20094;-46
2023/10/23 10:02:45;;;;;;;10.13;2.25;;;;;;;19.99;49.05;97683.03;5091733;28;20107;-46
2023/10/23 10:05:16;;;;;;;8.45;2.95;;;;;;;19.84;48.17;97694.66;5091563;28;20043;-46
2023/10/23 10:08:09;;;;;;;6.25;2.70;;;;;;;19.79;48.54;97681.44;5091671;28;20050;-46
2023/10/23 10:10:36;;;;;;;7.07;3.50;;;;;;;19.78;49.42;97685.16;5090797;28;20083;-46
2023/10/23 10:13:04;;;;;;;9.93;4.05;;;;;;;20.41;49.87;97689.41;5091486;28;20398;-46
2023/10/23 10:15:31;;;;;;;7.72;3.15;;;;;;;20.73;46.03;97686.00;5091480;28;20070;-46
2023/10/23 10:17:57;;;;;;;7.90;2.95;;;;;;;20.76;46.43;97682.75;5091457;28;20052;-46
2023/10/23 10:20:24;;;;;;;12.20;3.08;;;;;;;20.97;46.65;97683.22;5094949;28;20028;-46
2023/10/23 10:23:01;;;;;;;10.18;5.10;;;;;;;20.94;46.33;97673.13;5094047;28;20402;-46
2023/10/23 10:25:27;;;;;;;26.85;14.95;;;;;;;21.27;46.81;97676.56;5095323;28;20028;-46
2023/10/23 10:27:57;;;;;;;11.77;4.55;;;;;;;21.57;44.96;97676.28;5095231;28;20398;-46
2023/10/23 10:30:43;;;;;;;5.50;2.38;;;;;;;21.51;45.15;97681.75;5095103;28;20024;-46
2023/10/23 10:33:25;;;;;;;16.65;6.07;;;;;;;21.14;45.34;97669.31;5095136;28;20382;-46
2023/10/23 10:36:12;;;;;;;26.63;16.98;;;;;;;20.95;46.16;97662.16;5095094;28;20032;-46
2023/10/23 10:38:37;;;;;;;6.60;2.40;;;;;;;21.02;46.33;97669.78;5094916;28;20024;-46
2023/10/23 10:41:17;;;;;;;5.32;2.33;;;;;;;21.10;45.46;97663.75;5094872;28;20031;-46
2023/10/23 10:43:50;;;;;;;94.68;64.00;;;;;;;21.12;46.24;97666.94;5094963;28;20027;-46
2023/10/23 10:46:24;;;;;;;157.15;84.65;;;;;;;21.08;45.99;97646.47;5094885;28;20445;-46
2023/10/23 10:48:55;;;;;;;52.00;29.05;;;;;;;21.30;45.53;97645.81;5094972;28;20134;-46
2023/10/23 10:51:21;;;;;;;12.35;5.97;;;;;;;21.50;43.52;97636.66;5094750;28;20500;-46
2023/10/23 10:53:48;;;;;;;22.85;14.25;;;;;;;21.35;43.92;97651.84;5093495;28;20093;-46
2023/10/23 10:56:14;;;;;;;21.65;9.30;;;;;;;21.03;44.90;97646.59;5094573;28;20446;-46
2023/10/23 10:58:45;;;;;;;25.38;15.35;;;;;;;21.06;45.86;97625.44;5094634;28;20027;-46
2023/10/23 11:01:11;;;;;;;14.02;4.18;;;;;;;21.37;45.25;97624.06;5094596;28;20032;-46
2023/10/23 11:03:37;;;;;;;1694.43;844.30;;;;;;;21.66;46.52;97613.09;5094585;28;20381;-46
2023/10/23 11:06:06;;;;;;;483.05;201.50;;;;;;;21.89;43.87;97611.28;5094745;28;20036;-46
2023/10/23 11:08:34;;;;;;;720.00;324.13;;;;;;;21.96;44.33;97617.00;5094510;28;20391;-46
2023/10/23 11:11:06;;;;;;;663.72;302.10;;;;;;;21.98;44.82;97606.81;5094104;28;20040;-46
2023/10/23 11:13:32;;;;;;;146.05;64.10;;;;;;;22.19;43.54;97612.47;5093270;28;20032;-47
2023/10/23 11:15:59;;;;;;;86.57;37.38;;;;;;;22.41;42.77;97614.38;5093314;28;20025;-46
2023/10/23 11:18:25;;;;;;;402.45;184.98;;;;;;;22.48;43.37;97617.44;5094294;28;20069;-46
2023/10/23 11:20:57;;;;;;;400.88;182.10;;;;;;;22.63;43.32;97605.56;5094233;28;20028;-46
2023/10/23 11:23:23;;;;;;;564.72;318.08;;;;;;;23.04;42.73;97609.09;5093262;28;20036;-46
2023/10/23 11:25:49;;;;;;;149.23;68.03;;;;;;;23.25;41.11;97594.09;5094071;28;20024;-46
2023/10/23 11:28:18;;;;;;;150.10;61.28;;;;;;;23.31;40.78;97568.75;5094092;28;20020;-46